KKLS/KLS METAR and TAF weather

Enter ICAO airport designator
Station Type Date Time Source
KKLS METAR 2021/07/27 21:56 UTC NOAA

KKLS 272156Z AUTO VRB06KT 10SM CLR 26/16 A3005 RMK AO2 SLP179 T02610156


Station Type Date Time Source
KKLS Decoded METAR 2021/07/27 21:56 UTC NOAA

Kelso, Kelso-Longview Airport, WA, United States (KKLS) 46-07N 122-54W
Jul 27, 2021 - 05:56 PM EDT / 2021.07.27 2156 UTC
Wind: Variable at 7 MPH (6 KT):0
Visibility: 10 mile(s):0
Sky conditions: clear
Temperature: 79.0 F (26.1 C)
Dew Point: 60.1 F (15.6 C)
Relative Humidity: 52%
Pressure (altimeter): 30.05 in. Hg (1017 hPa)
ob: KKLS 272156Z AUTO VRB06KT 10SM CLR 26/16 A3005 RMK AO2 SLP179 T02610156
cycle: 22

Station Type Date Time Source
KKLS TAF UTC NOAA

Error!

Example: see airport list